createdAt,value
2024-02-13T00:01:11.186Z,153.6
2024-02-13T00:02:12.549Z,154.2
2024-02-13T00:03:11.185Z,152.7
2024-02-13T00:04:12.155Z,152.3
2024-02-13T00:05:11.375Z,151.9
2024-02-13T00:06:31.297Z,151.8
2024-02-13T00:07:10.988Z,152.1
2024-02-13T00:08:11.787Z,154
2024-02-13T00:09:20.453Z,155
2024-02-13T00:10:12.502Z,156.2
2024-02-13T00:11:10.638Z,155.4
2024-02-13T00:12:15.293Z,155.2
2024-02-13T00:13:14.768Z,155.2
2024-02-13T00:14:12.099Z,157.9
2024-02-13T00:15:11.706Z,158
2024-02-13T00:16:12.439Z,158.2
2024-02-13T00:17:14.334Z,156.6
2024-02-13T00:18:15.920Z,156.6
2024-02-13T00:19:11.859Z,155.7
2024-02-13T00:20:12.373Z,156
2024-02-13T00:21:11.509Z,157.9
2024-02-13T00:22:22.372Z,161.7
2024-02-13T00:23:11.693Z,164.1
2024-02-13T00:24:12.477Z,167
2024-02-13T00:25:15.292Z,169.4
2024-02-13T00:26:12.103Z,172.2
2024-02-13T00:27:11.733Z,170.9
2024-02-13T00:28:12.829Z,169.9
2024-02-13T00:29:10.732Z,169.2
2024-02-13T00:30:11.756Z,168.6
2024-02-13T00:31:10.787Z,165.4
2024-02-13T00:32:11.190Z,164
2024-02-13T00:33:10.897Z,163.5
2024-02-13T00:34:16.951Z,162.1
2024-02-13T00:35:14.919Z,161.4
2024-02-13T00:36:11.957Z,161
2024-02-13T00:37:11.209Z,162.5
2024-02-13T00:38:11.965Z,161.1
2024-02-13T00:39:11.463Z,161.5
2024-02-13T00:40:12.020Z,160.1
2024-02-13T00:41:11.081Z,159.8
2024-02-13T00:42:12.341Z,158.1
2024-02-13T00:43:11.007Z,156.8
2024-02-13T00:44:11.900Z,155.9
2024-02-13T00:45:11.026Z,156.8
2024-02-13T00:46:12.099Z,157.9
2024-02-13T00:47:15.847Z,156.4
2024-02-13T00:48:11.764Z,157
2024-02-13T00:49:10.647Z,154.4
2024-02-13T00:50:14.336Z,152.6
2024-02-13T00:51:10.466Z,151
2024-02-13T00:52:18.130Z,148.9
2024-02-13T00:53:10.938Z,148.4
2024-02-13T00:54:12.064Z,147.9
2024-02-13T00:55:11.351Z,146.2
2024-02-13T00:56:12.164Z,144.4
2024-02-13T00:57:11.466Z,141.9
2024-02-13T00:58:11.740Z,140.7
2024-02-13T00:59:14.908Z,140
2024-02-13T01:01:10.866Z,137
2024-02-13T01:02:15.068Z,135.4
2024-02-13T01:03:10.065Z,133.5
2024-02-13T01:04:11.990Z,134.5
2024-02-13T01:05:11.196Z,135.5
2024-02-13T01:06:15.858Z,136.7
2024-02-13T01:07:11.865Z,137.4
2024-02-13T01:08:11.689Z,135.9
2024-02-13T01:09:15.070Z,136.1
2024-02-13T01:10:12.561Z,134.5
2024-02-13T01:11:14.746Z,135.1
2024-02-13T01:12:17.398Z,137
2024-02-13T01:13:10.709Z,137.8
2024-02-13T01:14:12.621Z,138
2024-02-13T01:15:10.962Z,137.5
2024-02-13T01:16:12.043Z,135.2
2024-02-13T01:17:11.269Z,135.4
2024-02-13T01:18:11.894Z,136.1
2024-02-13T01:19:11.298Z,136.3
2024-02-13T01:20:11.635Z,135.2
2024-02-13T01:21:11.314Z,135.6
2024-02-13T01:22:11.613Z,135.9
2024-02-13T01:23:11.388Z,137
2024-02-13T01:24:21.617Z,135.6
2024-02-13T01:25:18.752Z,136.2
2024-02-13T01:26:12.375Z,135.3
2024-02-13T01:27:19.856Z,134.1
2024-02-13T01:28:11.641Z,133.3
2024-02-13T01:29:15.250Z,129.8
2024-02-13T01:30:13.202Z,129.7
2024-02-13T01:31:11.390Z,129.2
2024-02-13T01:32:16.445Z,129.8
2024-02-13T01:33:15.555Z,129
2024-02-13T01:34:15.498Z,129.6
2024-02-13T01:35:11.825Z,130.4
2024-02-13T01:36:12.803Z,130.7
2024-02-13T01:37:17.562Z,129.7
2024-02-13T01:38:16.104Z,127.5
2024-02-13T01:39:14.674Z,125
2024-02-13T01:40:12.830Z,123.3
2024-02-13T01:41:11.294Z,121.2
2024-02-13T01:42:12.070Z,118.8
2024-02-13T01:43:11.561Z,116.2
2024-02-13T01:44:11.871Z,116.3
2024-02-13T01:45:14.051Z,116.7
2024-02-13T01:46:16.095Z,115.9
2024-02-13T01:47:11.402Z,115.6
2024-02-13T01:48:11.750Z,114.7
2024-02-13T01:49:19.671Z,114.5
2024-02-13T01:50:17.494Z,114.2
2024-02-13T01:51:11.024Z,112.3
2024-02-13T01:52:12.252Z,112.6
2024-02-13T01:53:10.608Z,111.4
2024-02-13T01:54:11.796Z,110.8
2024-02-13T01:55:19.987Z,110
2024-02-13T01:56:12.372Z,109.4
2024-02-13T01:57:11.964Z,108.8
2024-02-13T01:58:12.012Z,107.9
2024-02-13T01:59:11.516Z,107.9
2024-02-13T02:01:10.782Z,108.5
2024-02-13T02:02:15.955Z,107.8
2024-02-13T02:03:19.027Z,105.2
2024-02-13T02:04:12.191Z,104.4
2024-02-13T02:05:10.891Z,103.3
2024-02-13T02:06:11.704Z,104.4
2024-02-13T02:07:10.563Z,104.2
2024-02-13T02:08:11.461Z,104.1
2024-02-13T02:09:14.002Z,104.8
2024-02-13T02:10:12.832Z,104.9
2024-02-13T02:11:11.026Z,105.6
2024-02-13T02:12:12.010Z,104.8
2024-02-13T02:13:13.999Z,105
2024-02-13T02:14:18.845Z,104.1
2024-02-13T02:15:16.852Z,103.1
2024-02-13T02:16:11.786Z,103.6
2024-02-13T02:17:11.214Z,103.9
2024-02-13T02:18:16.197Z,103.7
2024-02-13T02:19:14.087Z,104
2024-02-13T02:20:11.285Z,104.6
2024-02-13T02:21:10.066Z,104
2024-02-13T02:22:11.523Z,104.4
2024-02-13T02:23:13.976Z,104.7
2024-02-13T02:24:12.012Z,105.2
2024-02-13T02:25:10.474Z,105
2024-02-13T02:26:11.408Z,104.8
2024-02-13T02:27:10.576Z,103.9
2024-02-13T02:28:18.210Z,105.1
2024-02-13T02:29:10.836Z,103.4
2024-02-13T02:30:15.818Z,104.2
2024-02-13T02:31:11.564Z,104.7
2024-02-13T02:32:11.805Z,104.3
2024-02-13T02:33:11.634Z,104.5
2024-02-13T02:34:11.915Z,105.3
2024-02-13T02:35:19.282Z,105.5
2024-02-13T02:36:12.082Z,104
2024-02-13T02:37:11.553Z,103.6
2024-02-13T02:38:12.069Z,103.1
2024-02-13T02:39:12.248Z,103.3
2024-02-13T02:40:12.536Z,103.7
2024-02-13T02:41:11.010Z,104
2024-02-13T02:42:11.907Z,103.6
2024-02-13T02:43:10.916Z,104.1
2024-02-13T02:44:11.767Z,103
2024-02-13T02:45:10.794Z,102
2024-02-13T02:46:16.360Z,100.6
2024-02-13T02:47:10.502Z,100
2024-02-13T02:48:15.069Z,99.5
2024-02-13T02:49:10.389Z,99.3
2024-02-13T02:50:10.986Z,99
2024-02-13T02:51:11.406Z,99.7
2024-02-13T02:52:11.031Z,99.8
2024-02-13T02:53:20.591Z,101.2
2024-02-13T02:54:11.965Z,99.9
2024-02-13T02:55:14.030Z,100.4
2024-02-13T02:56:12.243Z,99.9
2024-02-13T02:57:10.678Z,99.9
2024-02-13T02:58:15.693Z,99.4
2024-02-13T02:59:11.031Z,100.7
2024-02-13T03:01:10.087Z,100.1
2024-02-13T03:02:11.782Z,99
2024-02-13T03:03:14.109Z,99.6
2024-02-13T03:04:12.342Z,100.2
2024-02-13T03:05:10.843Z,101.6
2024-02-13T03:06:26.961Z,101.1
2024-02-13T03:07:20.923Z,101.1
2024-02-13T03:08:18.162Z,98.7
2024-02-13T03:09:10.476Z,99.6
2024-02-13T03:10:11.930Z,100.2
2024-02-13T03:11:10.845Z,100.8
2024-02-13T03:12:11.356Z,101.5
2024-02-13T03:13:10.190Z,101.8
2024-02-13T03:14:15.317Z,102.6
2024-02-13T03:15:14.386Z,101.6
2024-02-13T03:16:11.752Z,102.1
2024-02-13T03:17:13.794Z,101.4
2024-02-13T03:18:16.753Z,100.8
2024-02-13T03:19:10.655Z,100
2024-02-13T03:20:12.324Z,99.6
2024-02-13T03:21:10.451Z,100.9
2024-02-13T03:22:10.923Z,102
2024-02-13T03:23:13.974Z,100.3
2024-02-13T03:24:11.490Z,101.2
2024-02-13T03:25:16.481Z,101.4
2024-02-13T03:26:11.300Z,103.7
2024-02-13T03:27:09.936Z,103.6
2024-02-13T03:28:15.051Z,103.1
2024-02-13T03:29:10.972Z,101.8
2024-02-13T03:30:11.763Z,100.2
2024-02-13T03:31:15.732Z,100.5
2024-02-13T03:32:15.306Z,101.3
2024-02-13T03:33:10.914Z,102.1
2024-02-13T03:34:18.466Z,101.1
2024-02-13T03:35:10.942Z,101.2
2024-02-13T03:36:12.012Z,100.7
2024-02-13T03:37:11.310Z,101.1
2024-02-13T03:38:11.613Z,100.1
2024-02-13T03:39:10.816Z,98.2
2024-02-13T03:40:11.574Z,97.8
2024-02-13T03:41:11.776Z,98.2
2024-02-13T03:42:11.726Z,98.6
2024-02-13T03:43:10.725Z,98
2024-02-13T03:44:20.909Z,97.4
2024-02-13T03:45:13.912Z,96.8
2024-02-13T03:46:16.321Z,97.9
2024-02-13T03:47:10.339Z,99.2
2024-02-13T03:48:11.546Z,99.1
2024-02-13T03:49:10.459Z,97.9
2024-02-13T03:50:11.319Z,97.5
2024-02-13T03:51:10.629Z,96.8
2024-02-13T03:52:15.857Z,97
2024-02-13T03:53:11.329Z,95.6
2024-02-13T03:54:11.683Z,95.3
2024-02-13T03:55:11.596Z,95.3
2024-02-13T03:56:19.535Z,96
2024-02-13T03:57:11.887Z,95.6
2024-02-13T03:58:11.888Z,95.9
2024-02-13T03:59:13.445Z,94.6
2024-02-13T04:01:10.891Z,95.2
2024-02-13T04:02:12.057Z,94.3
2024-02-13T04:03:11.270Z,93.3
2024-02-13T04:04:12.745Z,91.9
2024-02-13T04:05:10.988Z,91.8
2024-02-13T04:06:18.377Z,92
2024-02-13T04:07:15.714Z,90.7
2024-02-13T04:08:12.061Z,88.5
2024-02-13T04:09:30.304Z,88.4
2024-02-13T04:10:12.123Z,87.5
2024-02-13T04:11:10.701Z,89.2
2024-02-13T04:12:11.429Z,89.1
2024-02-13T04:13:18.332Z,89.7
2024-02-13T04:14:11.534Z,88.7
2024-02-13T04:15:10.503Z,87.6
2024-02-13T04:16:14.852Z,86.3
2024-02-13T04:17:10.625Z,86.3
2024-02-13T04:18:11.603Z,86.3
2024-02-13T04:19:17.652Z,87.2
2024-02-13T04:20:12.271Z,88.2
2024-02-13T04:21:10.937Z,88.3
2024-02-13T04:22:20.030Z,87.5
2024-02-13T04:23:11.188Z,86
2024-02-13T04:24:11.977Z,84.1
2024-02-13T04:25:10.859Z,84.9
2024-02-13T04:26:21.728Z,84.3
2024-02-13T04:27:10.298Z,84.8
2024-02-13T04:28:12.292Z,84.4
2024-02-13T04:29:14.086Z,84.8
2024-02-13T04:30:12.608Z,83
2024-02-13T04:31:11.267Z,83
2024-02-13T04:32:11.145Z,84
2024-02-13T04:33:12.046Z,84.5
2024-02-13T04:34:27.966Z,83.4
2024-02-13T04:35:11.208Z,82.3
2024-02-13T04:36:11.951Z,81.7
2024-02-13T04:37:11.388Z,82.4
2024-02-13T04:38:11.682Z,82.4
2024-02-13T04:39:19.769Z,83.1
2024-02-13T04:40:14.426Z,82.4
2024-02-13T04:41:11.257Z,83.5
2024-02-13T04:42:12.456Z,83.4
2024-02-13T04:43:11.369Z,82.8
2024-02-13T04:44:23.894Z,81.9
2024-02-13T04:45:10.192Z,81.1
2024-02-13T04:46:12.436Z,80.5
2024-02-13T04:47:21.529Z,81
2024-02-13T04:48:15.978Z,80.7
2024-02-13T04:49:10.295Z,81.3
2024-02-13T04:50:14.652Z,81.8
2024-02-13T04:51:10.334Z,82.8
2024-02-13T04:52:11.797Z,82.1
2024-02-13T04:53:10.902Z,82.4
2024-02-13T04:54:20.603Z,80.9
2024-02-13T04:55:11.123Z,80.4
2024-02-13T04:56:12.054Z,80.3
2024-02-13T04:57:11.478Z,80.9
2024-02-13T04:58:11.535Z,81.8
2024-02-13T04:59:18.049Z,80.9
2024-02-13T05:01:11.746Z,80
2024-02-13T05:02:12.320Z,80.1
2024-02-13T05:03:10.286Z,79.2
2024-02-13T05:04:11.867Z,80.1
2024-02-13T05:05:11.023Z,80
2024-02-13T05:06:18.992Z,80
2024-02-13T05:07:10.459Z,79.2
2024-02-13T05:08:15.315Z,79
2024-02-13T05:09:11.285Z,78.6
2024-02-13T05:10:16.275Z,78.8
2024-02-13T05:11:15.906Z,78.3
2024-02-13T05:12:25.560Z,78.7
2024-02-13T05:13:10.446Z,79.7
2024-02-13T05:14:19.874Z,78.9
2024-02-13T05:15:10.801Z,79.6
2024-02-13T05:16:20.879Z,80.1
2024-02-13T05:17:10.334Z,80.5
2024-02-13T05:18:12.077Z,81
2024-02-13T05:19:19.365Z,80.7
2024-02-13T05:20:11.593Z,81.4
2024-02-13T05:21:14.704Z,80.3
2024-02-13T05:22:18.912Z,80.2
2024-02-13T05:23:10.557Z,79.4
2024-02-13T05:24:11.811Z,79
2024-02-13T05:25:23.707Z,78.9
2024-02-13T05:26:11.679Z,80.4
2024-02-13T05:27:14.340Z,79.9
2024-02-13T05:28:11.823Z,78.8
2024-02-13T05:29:11.258Z,79.7
2024-02-13T05:30:12.290Z,80.3
2024-02-13T05:31:10.652Z,80.3
2024-02-13T05:32:19.538Z,80.5
2024-02-13T05:33:15.099Z,78.5
2024-02-13T05:34:11.757Z,80.1
2024-02-13T05:35:11.450Z,80.2
2024-02-13T05:36:11.725Z,79.5
2024-02-13T05:37:16.586Z,78.9
2024-02-13T05:38:13.086Z,78.9
2024-02-13T05:39:16.085Z,80
2024-02-13T05:40:11.655Z,80.1
2024-02-13T05:41:11.074Z,79.5
2024-02-13T05:42:12.142Z,79.1
2024-02-13T05:43:11.007Z,78.5
2024-02-13T05:44:11.775Z,78.7
2024-02-13T05:45:10.761Z,78.9
2024-02-13T05:46:18.579Z,79.1
2024-02-13T05:47:10.890Z,79.8
2024-02-13T05:48:11.551Z,79.8
2024-02-13T05:49:18.939Z,79.2
2024-02-13T05:50:16.351Z,78.9
2024-02-13T05:51:11.228Z,78.7
2024-02-13T05:52:12.062Z,79.2
2024-02-13T05:53:11.271Z,78.4
2024-02-13T05:54:13.246Z,78.9
2024-02-13T05:55:10.552Z,79.3
2024-02-13T05:56:12.641Z,80
2024-02-13T05:57:14.540Z,80.9
2024-02-13T05:58:11.551Z,81.1
2024-02-13T05:59:14.863Z,81.6
2024-02-13T06:01:15.864Z,80.5
2024-02-13T06:02:17.824Z,81.1
2024-02-13T06:03:11.193Z,82
2024-02-13T06:04:12.386Z,83
2024-02-13T06:05:11.246Z,82.6
2024-02-13T06:06:12.516Z,82.6
2024-02-13T06:07:11.104Z,83.5
2024-02-13T06:08:12.182Z,83.9
2024-02-13T06:09:10.887Z,82.4
2024-02-13T06:10:12.723Z,82.3
2024-02-13T06:11:11.091Z,81.9
2024-02-13T06:12:13.100Z,82.3
2024-02-13T06:13:11.458Z,81.6
2024-02-13T06:14:11.982Z,81.6
2024-02-13T06:15:16.500Z,82.4
2024-02-13T06:16:12.523Z,82
2024-02-13T06:17:11.209Z,81.8
2024-02-13T06:18:13.211Z,83.7
2024-02-13T06:19:11.887Z,84.6
2024-02-13T06:20:11.978Z,83.6
2024-02-13T06:21:11.761Z,83.9
2024-02-13T06:22:11.259Z,84.4
2024-02-13T06:23:10.017Z,85
2024-02-13T06:24:11.740Z,85.9
2024-02-13T06:25:10.832Z,84.6
2024-02-13T06:26:11.680Z,84
2024-02-13T06:27:10.658Z,83.2
2024-02-13T06:28:27.954Z,84.4
2024-02-13T06:29:10.996Z,85.2
2024-02-13T06:30:11.779Z,85.9
2024-02-13T06:31:11.041Z,86
2024-02-13T06:32:12.771Z,85.6
2024-02-13T06:33:14.609Z,85.2
2024-02-13T06:34:12.068Z,85.5
2024-02-13T06:35:15.070Z,86.3
2024-02-13T06:36:11.959Z,87.4
2024-02-13T06:37:11.607Z,87.9
2024-02-13T06:38:16.186Z,88.4
2024-02-13T06:39:10.967Z,88
2024-02-13T06:40:18.994Z,88.2
2024-02-13T06:41:10.842Z,89.7
2024-02-13T06:42:12.294Z,89.4
2024-02-13T06:43:10.846Z,88.5
2024-02-13T06:44:12.074Z,89.4
2024-02-13T06:45:11.742Z,88.9
2024-02-13T06:46:17.151Z,89.9
2024-02-13T06:47:11.304Z,89.8
2024-02-13T06:48:12.683Z,90.4
2024-02-13T06:49:13.783Z,90.3
2024-02-13T06:50:15.809Z,90
2024-02-13T06:51:11.128Z,90.1
2024-02-13T06:52:12.220Z,91
2024-02-13T06:53:16.803Z,92.8
2024-02-13T06:54:11.716Z,94.9
2024-02-13T06:55:11.529Z,95.7
2024-02-13T06:56:14.260Z,95
2024-02-13T06:57:10.850Z,95.2
2024-02-13T06:58:12.259Z,94.9
2024-02-13T06:59:10.590Z,94.3
2024-02-13T07:01:11.507Z,91.4
2024-02-13T07:02:12.152Z,91.8
2024-02-13T07:03:10.664Z,92.1
2024-02-13T07:04:12.236Z,93
2024-02-13T07:05:11.632Z,93.4
2024-02-13T07:06:37.940Z,92.7
2024-02-13T07:07:25.293Z,92.7
2024-02-13T07:08:19.988Z,94.1
2024-02-13T07:09:11.447Z,92.8
2024-02-13T07:10:13.197Z,92.8
2024-02-13T07:11:10.965Z,92
2024-02-13T07:12:12.645Z,91.1
2024-02-13T07:13:11.173Z,90.7
2024-02-13T07:14:12.786Z,91.5
2024-02-13T07:15:15.581Z,91.4
2024-02-13T07:16:12.292Z,92.4
2024-02-13T07:17:11.077Z,91.6
2024-02-13T07:18:12.946Z,93.2
2024-02-13T07:19:17.804Z,92.4
2024-02-13T07:20:12.739Z,92.9
2024-02-13T07:21:16.393Z,92.1
2024-02-13T07:22:12.262Z,91.6
2024-02-13T07:23:11.341Z,91.5
2024-02-13T07:24:12.144Z,91.6
2024-02-13T07:25:11.441Z,91.5
2024-02-13T07:26:12.673Z,91.9
2024-02-13T07:27:11.490Z,90.9
2024-02-13T07:28:11.667Z,90.6
2024-02-13T07:29:11.436Z,90.5
2024-02-13T07:30:12.307Z,91.3
2024-02-13T07:31:18.033Z,93.4
2024-02-13T07:32:13.555Z,92.7
2024-02-13T07:33:11.485Z,93.7
2024-02-13T07:34:11.969Z,92.9
2024-02-13T07:35:11.653Z,91.9
2024-02-13T07:36:12.789Z,91.2
2024-02-13T07:37:11.402Z,91.2
2024-02-13T07:38:11.949Z,90.1
2024-02-13T07:39:16.053Z,89.2
2024-02-13T07:40:12.184Z,90.1
2024-02-13T07:41:11.550Z,91.3
2024-02-13T07:42:11.946Z,91.7
2024-02-13T07:43:11.328Z,91.9
2024-02-13T07:44:16.562Z,92.9
2024-02-13T07:45:11.518Z,93.3
2024-02-13T07:46:18.741Z,93.9
2024-02-13T07:47:11.537Z,94
2024-02-13T07:48:12.361Z,93.1
2024-02-13T07:49:15.234Z,93.2
2024-02-13T07:50:12.585Z,93.7
2024-02-13T07:51:15.636Z,93.7
2024-02-13T07:52:11.678Z,93.6
2024-02-13T07:53:10.529Z,93.6
2024-02-13T07:54:19.627Z,93.2
2024-02-13T07:55:13.096Z,94.2
2024-02-13T07:56:14.977Z,94.1
2024-02-13T07:57:21.043Z,93.2
2024-02-13T07:58:11.812Z,92.8
2024-02-13T07:59:10.897Z,92.8
2024-02-13T08:01:11.629Z,92.4
2024-02-13T08:02:12.971Z,92.7
2024-02-13T08:03:11.406Z,93.1
2024-02-13T08:04:15.734Z,94.6
2024-02-13T08:05:11.587Z,94.1
2024-02-13T08:06:12.113Z,94.8
2024-02-13T08:07:14.240Z,94.2
2024-02-13T08:08:12.060Z,93.5
2024-02-13T08:09:20.960Z,92
2024-02-13T08:10:12.931Z,91.8
2024-02-13T08:11:13.316Z,90.9
2024-02-13T08:12:11.910Z,91.8
2024-02-13T08:13:11.536Z,91.6
2024-02-13T08:14:12.477Z,92
2024-02-13T08:15:15.627Z,91.8
2024-02-13T08:16:13.291Z,91.6
2024-02-13T08:17:12.318Z,92.1
2024-02-13T08:18:16.376Z,92.8
2024-02-13T08:19:11.471Z,93.3
2024-02-13T08:20:12.711Z,92.6
2024-02-13T08:21:11.416Z,91.9
2024-02-13T08:22:18.872Z,90.4
2024-02-13T08:23:11.486Z,90.5
2024-02-13T08:24:12.162Z,92
2024-02-13T08:25:15.876Z,93.2
2024-02-13T08:26:12.647Z,93.9
2024-02-13T08:27:11.454Z,93.4
2024-02-13T08:28:12.115Z,92.8
2024-02-13T08:29:11.516Z,92.5
2024-02-13T08:30:12.836Z,91.6
2024-02-13T08:31:17.057Z,91.3
2024-02-13T08:32:19.232Z,90.3
2024-02-13T08:33:11.444Z,90.4
2024-02-13T08:34:19.060Z,91.6
2024-02-13T08:35:11.812Z,92.8
2024-02-13T08:36:12.753Z,93.6
2024-02-13T08:37:11.902Z,93
2024-02-13T08:38:12.996Z,91.5
2024-02-13T08:39:11.427Z,90
2024-02-13T08:40:12.021Z,89
2024-02-13T08:41:12.028Z,88.5
2024-02-13T08:42:12.588Z,89.4
2024-02-13T08:43:11.381Z,90
2024-02-13T08:44:16.780Z,90.8
2024-02-13T08:45:11.603Z,90.6
2024-02-13T08:46:12.100Z,90.5
2024-02-13T08:47:36.220Z,90.4
2024-02-13T08:48:13.874Z,90
2024-02-13T08:49:12.165Z,89.7
2024-02-13T08:50:12.048Z,90
2024-02-13T08:51:16.087Z,90
2024-02-13T08:52:12.041Z,90.1
2024-02-13T08:53:11.366Z,89.9
2024-02-13T08:54:17.543Z,89.6
2024-02-13T08:55:12.813Z,89.5
2024-02-13T08:56:20.385Z,88.4
2024-02-13T08:57:11.223Z,89.2
2024-02-13T08:58:12.382Z,88.8
2024-02-13T08:59:10.877Z,89.3
2024-02-13T09:01:11.672Z,89.4
2024-02-13T09:02:17.442Z,89.5
2024-02-13T09:03:11.191Z,89.6
2024-02-13T09:04:12.936Z,88.7
2024-02-13T09:05:16.006Z,88.7
2024-02-13T09:06:12.053Z,88.9
2024-02-13T09:07:11.561Z,89.6
2024-02-13T09:08:12.284Z,89.3
2024-02-13T09:09:16.306Z,89.5
2024-02-13T09:10:16.894Z,89
2024-02-13T09:11:11.510Z,89
2024-02-13T09:12:22.744Z,88.9
2024-02-13T09:13:11.029Z,89.6
2024-02-13T09:14:12.272Z,89.7
2024-02-13T09:15:11.271Z,89.1
2024-02-13T09:16:14.078Z,88.8
2024-02-13T09:17:11.132Z,88
2024-02-13T09:18:12.528Z,88.7
2024-02-13T09:19:13.883Z,88.7
2024-02-13T09:20:12.504Z,88.8
2024-02-13T09:21:14.543Z,89.2
2024-02-13T09:22:13.554Z,89
2024-02-13T09:23:11.578Z,89.3
2024-02-13T09:24:16.090Z,87.8
2024-02-13T09:25:15.269Z,86.4
2024-02-13T09:26:14.791Z,84.8
2024-02-13T09:27:10.639Z,85.7
2024-02-13T09:28:11.544Z,86.2
2024-02-13T09:29:15.945Z,87.9
2024-02-13T09:30:12.631Z,88.1
2024-02-13T09:31:13.045Z,87.9
2024-02-13T09:32:12.768Z,87
2024-02-13T09:33:11.854Z,86.2
2024-02-13T09:34:12.159Z,85.9
2024-02-13T09:35:11.375Z,85.7
2024-02-13T09:36:12.359Z,86.3
2024-02-13T09:37:10.891Z,86.7
2024-02-13T09:38:28.338Z,87.5
2024-02-13T09:39:11.534Z,86.9
2024-02-13T09:40:11.880Z,86.2
2024-02-13T09:41:12.067Z,85.4
2024-02-13T09:42:12.237Z,84.3
2024-02-13T09:43:10.887Z,84.8
2024-02-13T09:44:14.864Z,85.1
2024-02-13T09:45:11.158Z,85.7
2024-02-13T09:46:12.461Z,85.4
2024-02-13T09:47:10.491Z,85.4
2024-02-13T09:48:11.714Z,86.4
2024-02-13T09:49:10.849Z,86.4
2024-02-13T09:50:23.156Z,85.7
2024-02-13T09:51:13.919Z,85
2024-02-13T09:52:11.799Z,84.9
2024-02-13T09:53:10.609Z,84.4
2024-02-13T09:54:11.930Z,84.1
2024-02-13T09:55:15.666Z,82.6
2024-02-13T09:56:16.633Z,82.9
2024-02-13T09:57:13.074Z,82.8
2024-02-13T09:58:11.937Z,83.1
2024-02-13T09:59:10.762Z,83.7
2024-02-13T10:01:11.078Z,83.3
2024-02-13T10:02:12.016Z,82.9
2024-02-13T10:03:15.763Z,83.3
2024-02-13T10:04:11.607Z,82.9
2024-02-13T10:05:11.370Z,82.2
2024-02-13T10:06:12.576Z,81.2
2024-02-13T10:07:14.131Z,80.7
2024-02-13T10:08:12.224Z,82.6
2024-02-13T10:09:11.806Z,82.3
2024-02-13T10:10:11.796Z,82.1
2024-02-13T10:11:11.678Z,81.6
2024-02-13T10:12:12.044Z,82
2024-02-13T10:13:15.997Z,82.1
2024-02-13T10:14:11.933Z,81.8
2024-02-13T10:15:10.942Z,82.5
2024-02-13T10:16:12.071Z,81.6
2024-02-13T10:17:11.035Z,83
2024-02-13T10:18:12.105Z,82.9
2024-02-13T10:19:11.495Z,84.8
2024-02-13T10:20:12.150Z,84.2
2024-02-13T10:21:11.381Z,82.8
2024-02-13T10:22:12.380Z,83.3
2024-02-13T10:23:12.172Z,82.4
2024-02-13T10:24:13.377Z,82.2
2024-02-13T10:25:16.300Z,81.2
2024-02-13T10:26:15.978Z,81.3
2024-02-13T10:27:11.180Z,81.9
2024-02-13T10:28:16.931Z,82.7
2024-02-13T10:29:11.442Z,81.8
2024-02-13T10:30:11.674Z,80.1
2024-02-13T10:31:16.646Z,79.7
2024-02-13T10:32:15.942Z,80.7
2024-02-13T10:33:11.511Z,81.1
2024-02-13T10:34:15.820Z,80.5
2024-02-13T10:35:11.147Z,80.8
2024-02-13T10:36:12.421Z,81.2
2024-02-13T10:37:19.798Z,81.2
2024-02-13T10:38:13.691Z,82.1
2024-02-13T10:39:11.952Z,83.7
2024-02-13T10:40:12.958Z,82.5
2024-02-13T10:41:18.281Z,82.8
2024-02-13T10:42:11.884Z,81.8
2024-02-13T10:43:10.809Z,82.8
2024-02-13T10:44:11.798Z,83.9
2024-02-13T10:45:14.350Z,84
2024-02-13T10:46:11.976Z,84.1
2024-02-13T10:47:11.537Z,83.1
2024-02-13T10:48:12.068Z,82.1
2024-02-13T10:49:12.111Z,81.7
2024-02-13T10:50:13.147Z,81.4
2024-02-13T10:51:20.519Z,81.9
2024-02-13T10:52:12.582Z,82
2024-02-13T10:53:18.149Z,82.3
2024-02-13T10:54:11.796Z,81.6
2024-02-13T10:55:11.419Z,82.1
2024-02-13T10:56:11.902Z,81.8
2024-02-13T10:57:18.521Z,82.1
2024-02-13T10:58:24.235Z,81.7
2024-02-13T10:59:10.610Z,82.3
2024-02-13T11:01:11.750Z,81.4
2024-02-13T11:02:28.187Z,80.3
2024-02-13T11:03:12.126Z,80.4
2024-02-13T11:04:11.776Z,81.3
2024-02-13T11:05:11.376Z,82.9
2024-02-13T11:06:31.971Z,84.6
2024-02-13T11:07:11.461Z,83.9
2024-02-13T11:08:15.404Z,84.4
2024-02-13T11:09:11.456Z,83.8
2024-02-13T11:10:12.480Z,83.9
2024-02-13T11:11:11.424Z,83.2
2024-02-13T11:12:15.028Z,84.1
2024-02-13T11:13:10.494Z,84.2
2024-02-13T11:14:18.326Z,83.3
2024-02-13T11:15:14.187Z,83.7
2024-02-13T11:16:11.728Z,82.9
2024-02-13T11:17:17.831Z,83.2
2024-02-13T11:18:12.112Z,83
2024-02-13T11:19:30.900Z,81.8
2024-02-13T11:20:13.185Z,82.2
2024-02-13T11:21:10.559Z,82.6
2024-02-13T11:22:15.370Z,83.5
2024-02-13T11:23:10.801Z,83.8
2024-02-13T11:24:11.825Z,83.3
2024-02-13T11:25:11.381Z,82
2024-02-13T11:26:16.186Z,81.9
2024-02-13T11:27:24.009Z,83
2024-02-13T11:28:10.870Z,83.1
2024-02-13T11:29:14.167Z,82.8
2024-02-13T11:30:11.603Z,83.7
2024-02-13T11:31:17.056Z,84
2024-02-13T11:32:11.996Z,84.6
2024-02-13T11:33:16.208Z,84.4
2024-02-13T11:34:15.780Z,83.8
2024-02-13T11:35:11.854Z,83.2
2024-02-13T11:36:16.356Z,82.7
2024-02-13T11:37:11.198Z,83.6
2024-02-13T11:38:12.089Z,83
2024-02-13T11:39:12.036Z,82.9
2024-02-13T11:40:12.126Z,82.6
2024-02-13T11:41:11.542Z,82.3
2024-02-13T11:42:12.576Z,82.6
2024-02-13T11:43:11.573Z,82.8
2024-02-13T11:44:22.227Z,83.7
2024-02-13T11:45:11.192Z,84.5
2024-02-13T11:46:12.649Z,84.7
2024-02-13T11:47:10.912Z,84.1
2024-02-13T11:48:12.537Z,82.3
2024-02-13T11:49:11.652Z,84
2024-02-13T11:50:16.453Z,83.9
2024-02-13T11:51:10.883Z,84
2024-02-13T11:52:12.369Z,82.4
2024-02-13T11:53:10.890Z,81.2
2024-02-13T11:54:12.399Z,81
2024-02-13T11:55:11.300Z,80.9
2024-02-13T11:56:25.281Z,80.9
2024-02-13T11:57:12.130Z,81.5
2024-02-13T11:58:12.043Z,82.2
2024-02-13T11:59:14.927Z,83.7
2024-02-13T12:01:17.183Z,83.8
2024-02-13T12:02:17.068Z,82.1
2024-02-13T21:26:13.026Z,73.8
2024-02-13T21:27:11.796Z,72.8
2024-02-13T21:28:12.046Z,73.3
2024-02-13T21:29:10.952Z,74.7
2024-02-13T21:30:11.778Z,74.2
2024-02-13T21:31:11.007Z,73.1
2024-02-13T21:32:11.850Z,71.8
2024-02-13T21:33:11.112Z,72.1
2024-02-13T21:34:12.192Z,72.4
2024-02-13T21:35:11.248Z,72.9
2024-02-13T21:36:12.143Z,73.3
2024-02-13T21:37:11.426Z,73.2
2024-02-13T21:38:14.507Z,74.3
2024-02-13T21:39:11.254Z,74.1
2024-02-13T21:40:11.426Z,74.3
2024-02-13T21:41:10.169Z,73.4
2024-02-13T21:42:11.818Z,73.3
2024-02-13T21:43:10.897Z,72.3
2024-02-13T21:44:12.234Z,71.7
2024-02-13T21:45:10.741Z,71.5
2024-02-13T21:46:11.851Z,72
2024-02-13T21:47:10.615Z,72.7
2024-02-13T21:48:12.791Z,72.8
2024-02-13T21:49:10.854Z,74.2
2024-02-13T21:50:11.762Z,74
2024-02-13T21:51:19.794Z,73.4
2024-02-13T21:52:12.142Z,73.4
2024-02-13T21:53:11.103Z,73
2024-02-13T21:54:12.287Z,71.9
2024-02-13T21:55:11.215Z,71
2024-02-13T21:56:12.281Z,70
2024-02-13T21:57:10.510Z,70.3
2024-02-13T21:58:11.799Z,70.8
2024-02-13T21:59:11.159Z,69.9
2024-02-13T22:18:11.152Z,70.6
2024-02-13T22:19:11.090Z,71.5
2024-02-13T22:20:11.732Z,72
2024-02-13T22:21:10.670Z,72.7
2024-02-13T22:22:12.027Z,73.6
2024-02-13T22:23:10.988Z,73.8
2024-02-13T22:24:11.909Z,74
2024-02-13T22:25:11.177Z,73.8
2024-02-13T22:26:12.201Z,74.2
2024-02-13T22:27:11.104Z,74.1
2024-02-13T22:28:12.212Z,74.3
2024-02-13T22:29:10.048Z,73.8
2024-02-13T22:33:16.432Z,73.3
2024-02-13T22:34:11.941Z,74.2
2024-02-13T22:35:10.983Z,72.7
2024-02-13T22:36:11.632Z,72.8
2024-02-13T22:37:10.603Z,73.7
2024-02-13T22:38:11.700Z,74.8
2024-02-13T22:39:10.780Z,76.9
2024-02-13T22:40:11.777Z,76
2024-02-13T22:41:10.826Z,76.2
2024-02-13T22:42:12.006Z,76.5
2024-02-13T22:43:11.046Z,76
2024-02-13T22:44:19.723Z,76.5
2024-02-13T22:45:11.393Z,77
2024-02-13T22:46:11.301Z,76.7
2024-02-13T22:47:09.829Z,77.2
2024-02-13T22:48:11.775Z,76.4
2024-02-13T22:49:10.673Z,76.9
2024-02-13T22:50:11.594Z,77.4
2024-02-13T22:51:10.390Z,76.2
2024-02-13T22:52:10.929Z,75.4
2024-02-13T22:53:10.608Z,75
2024-02-13T22:54:11.007Z,76.4
2024-02-13T22:55:10.758Z,76.8
2024-02-13T22:56:11.558Z,77.7
2024-02-13T22:57:10.285Z,77.6
2024-02-13T22:58:16.310Z,77.2
2024-02-13T22:59:10.234Z,76.5
2024-02-13T23:01:10.716Z,77.4
2024-02-13T23:02:11.533Z,77.9
2024-02-13T23:03:10.535Z,77.4
2024-02-13T23:04:12.145Z,76.1
2024-02-13T23:05:11.130Z,75.2
2024-02-13T23:06:12.191Z,75.1
2024-02-13T23:07:10.060Z,76.8
2024-02-13T23:08:11.552Z,77.5
2024-02-13T23:09:10.594Z,77.3
2024-02-13T23:10:11.609Z,76.8
2024-02-13T23:11:10.450Z,75.8
2024-02-13T23:12:11.220Z,74.5
2024-02-13T23:13:09.789Z,74.9
2024-02-13T23:14:11.138Z,74.6
2024-02-13T23:15:12.456Z,74.8
2024-02-13T23:16:11.863Z,74.8